createdAt,value
2023-02-16T00:00:20.491Z,18.20
2023-02-16T00:02:48.187Z,17.80
2023-02-16T00:05:27.261Z,21.15
2023-02-16T00:07:54.681Z,18.38
2023-02-16T00:10:22.185Z,22.25
2023-02-16T00:13:07.572Z,20.65
2023-02-16T00:15:34.697Z,19.83
2023-02-16T00:18:07.571Z,21.52
2023-02-16T00:20:34.314Z,20.38
2023-02-16T00:23:01.058Z,18.48
2023-02-16T00:25:27.823Z,26.38
2023-02-16T00:27:54.641Z,21.83
2023-02-16T00:30:22.667Z,18.25
2023-02-16T00:32:50.334Z,25.50
2023-02-16T00:35:19.788Z,17.25
2023-02-16T00:37:48.095Z,21.67
2023-02-16T00:40:16.494Z,21.02
2023-02-16T00:42:45.636Z,20.67
2023-02-16T00:45:21.447Z,20.23
2023-02-16T00:47:51.125Z,18.30
2023-02-16T00:50:25.755Z,18.05
2023-02-16T00:52:52.539Z,17.73
2023-02-16T00:55:26.605Z,22.08
2023-02-16T00:58:07.390Z,19.35
2023-02-16T01:00:40.537Z,17.05
2023-02-16T01:03:16.171Z,19.17
2023-02-16T01:05:43.118Z,21.67
2023-02-16T01:08:30.599Z,19.15
2023-02-16T01:11:09.764Z,20.55
2023-02-16T01:13:47.252Z,18.75
2023-02-16T01:16:24.364Z,14.55
2023-02-16T01:18:51.742Z,21.67
2023-02-16T01:21:19.767Z,14.52
2023-02-16T01:23:46.523Z,18.30
2023-02-16T01:26:18.754Z,17.40
2023-02-16T01:28:47.026Z,16.83
2023-02-16T01:31:16.879Z,16.50
2023-02-16T01:33:43.983Z,15.35
2023-02-16T01:36:24.159Z,20.27
2023-02-16T01:38:51.260Z,17.17
2023-02-16T01:41:53.164Z,17.00
2023-02-16T01:44:32.869Z,17.00
2023-02-16T01:47:07.274Z,19.45
2023-02-16T01:49:34.037Z,18.50
2023-02-16T01:52:30.698Z,18.45
2023-02-16T01:55:04.491Z,15.35
2023-02-16T01:57:31.535Z,18.48
2023-02-16T01:59:58.199Z,15.90
2023-02-16T02:02:27.829Z,17.63
2023-02-16T02:05:26.900Z,15.68
2023-02-16T02:08:15.653Z,16.13
2023-02-16T02:11:00.862Z,14.23
2023-02-16T02:13:49.951Z,12.30
2023-02-16T02:16:21.897Z,13.35
2023-02-16T02:18:48.967Z,16.27
2023-02-16T02:21:56.396Z,17.58
2023-02-16T02:24:31.970Z,16.08
2023-02-16T02:27:36.190Z,12.85
2023-02-16T02:30:29.597Z,14.07
2023-02-16T02:33:14.835Z,14.05
2023-02-16T02:35:47.560Z,16.13
2023-02-16T02:38:33.598Z,13.38
2023-02-16T02:41:53.154Z,13.90
2023-02-16T02:44:24.099Z,17.30
2023-02-16T02:46:51.545Z,17.42
2023-02-16T02:49:18.952Z,15.80
2023-02-16T02:51:45.776Z,17.90
2023-02-16T02:54:36.016Z,17.42
2023-02-16T02:57:36.046Z,14.80
2023-02-16T03:00:33.770Z,15.82
2023-02-16T03:03:30.220Z,13.35
2023-02-16T03:06:05.173Z,17.70
2023-02-16T03:08:37.174Z,14.40
2023-02-16T03:11:29.867Z,13.32
2023-02-16T03:14:19.060Z,14.90
2023-02-16T03:17:10.792Z,15.52
2023-02-16T03:19:58.708Z,14.70
2023-02-16T03:22:44.325Z,12.63
2023-02-16T03:25:29.458Z,15.73
2023-02-16T03:28:16.903Z,15.65
2023-02-16T03:30:45.220Z,14.60
2023-02-16T03:33:12.308Z,12.40
2023-02-16T03:35:39.558Z,13.30
2023-02-16T03:38:06.642Z,14.05
2023-02-16T03:40:34.996Z,13.35
2023-02-16T03:43:04.391Z,15.63
2023-02-16T03:45:32.900Z,11.55
2023-02-16T03:47:59.558Z,14.23
2023-02-16T03:50:27.173Z,11.63
2023-02-16T03:53:06.598Z,10.88
2023-02-16T03:55:35.484Z,11.95
2023-02-16T03:58:02.308Z,13.48
2023-02-16T04:00:29.444Z,13.50
2023-02-16T04:02:56.205Z,13.20
2023-02-16T04:05:23.088Z,11.32
2023-02-16T04:07:49.880Z,11.10
2023-02-16T04:10:16.805Z,18.27
2023-02-16T04:12:43.857Z,15.50
2023-02-16T04:15:13.636Z,12.43
2023-02-16T04:17:40.398Z,13.75
2023-02-16T04:20:11.273Z,11.30
2023-02-16T04:22:38.105Z,10.40
2023-02-16T04:25:05.217Z,13.18
2023-02-16T04:27:32.257Z,11.43
2023-02-16T04:29:59.010Z,15.18
2023-02-16T04:32:25.714Z,12.40
2023-02-16T04:34:52.489Z,12.38
2023-02-16T04:37:19.231Z,14.45
2023-02-16T04:39:45.993Z,14.82
2023-02-16T04:42:12.727Z,14.13
2023-02-16T04:44:39.509Z,12.55
2023-02-16T04:47:06.452Z,11.00
2023-02-16T04:49:33.169Z,14.20
2023-02-16T04:52:00.996Z,12.73
2023-02-16T04:54:28.239Z,15.77
2023-02-16T04:56:54.986Z,13.93
2023-02-16T04:59:22.177Z,13.25
2023-02-16T05:01:49.322Z,17.60
2023-02-16T05:04:16.529Z,16.35
2023-02-16T05:06:43.365Z,14.80
2023-02-16T05:09:10.062Z,13.00
2023-02-16T05:11:55.236Z,14.95
2023-02-16T05:14:44.517Z,13.35
2023-02-16T05:17:24.446Z,12.57
2023-02-16T05:19:53.934Z,15.38
2023-02-16T05:22:21.016Z,24.30
2023-02-16T05:24:48.575Z,19.85
2023-02-16T05:27:21.041Z,20.58
2023-02-16T05:29:48.391Z,15.30
2023-02-16T05:32:15.831Z,24.42
2023-02-16T05:34:44.487Z,17.73
2023-02-16T05:37:12.612Z,16.58
2023-02-16T05:39:39.370Z,21.13
2023-02-16T05:42:06.161Z,14.93
2023-02-16T05:44:32.892Z,13.65
2023-02-16T05:46:59.656Z,14.18
2023-02-16T05:49:26.604Z,18.58
2023-02-16T05:51:53.291Z,20.02
2023-02-16T05:54:20.096Z,13.82
2023-02-16T05:56:51.894Z,16.77
2023-02-16T05:59:19.154Z,21.25
2023-02-16T06:01:50.507Z,18.35
2023-02-16T06:04:18.385Z,18.48
2023-02-16T06:06:45.167Z,20.98
2023-02-16T06:09:12.358Z,15.23
2023-02-16T06:11:39.513Z,18.98
2023-02-16T06:14:18.015Z,16.65
2023-02-16T06:16:47.511Z,22.00
2023-02-16T06:19:16.012Z,17.67
2023-02-16T06:21:43.822Z,17.27
2023-02-16T06:24:12.500Z,17.88
2023-02-16T06:26:39.669Z,20.00
2023-02-16T06:29:07.008Z,14.73
2023-02-16T06:31:36.204Z,15.23
2023-02-16T06:34:04.096Z,18.85
2023-02-16T06:36:31.640Z,21.48
2023-02-16T06:38:58.399Z,17.98
2023-02-16T06:41:40.855Z,18.45
2023-02-16T06:44:12.412Z,15.25
2023-02-16T06:46:40.898Z,17.98
2023-02-16T06:49:07.921Z,14.88
2023-02-16T06:51:34.656Z,14.48
2023-02-16T06:54:01.408Z,16.13
2023-02-16T06:56:28.210Z,16.77
2023-02-16T06:58:55.071Z,13.60
2023-02-16T07:01:26.003Z,17.30
2023-02-16T07:03:54.497Z,13.68
2023-02-16T07:06:23.057Z,18.25
2023-02-16T07:08:53.475Z,18.55
2023-02-16T07:11:20.994Z,18.38
2023-02-16T07:13:48.197Z,12.35
2023-02-16T07:16:15.466Z,14.98
2023-02-16T07:18:42.687Z,17.58
2023-02-16T07:21:09.456Z,14.05
2023-02-16T07:23:36.221Z,14.93
2023-02-16T07:26:03.400Z,17.83
2023-02-16T07:28:30.147Z,13.75
2023-02-16T07:30:56.935Z,18.40
2023-02-16T07:33:23.970Z,16.50
2023-02-16T07:35:50.637Z,14.85
2023-02-16T07:38:17.465Z,15.57
2023-02-16T07:40:44.244Z,14.18
2023-02-16T07:43:10.982Z,14.43
2023-02-16T07:45:37.773Z,14.48
2023-02-16T07:51:04.741Z,15.85
2023-02-16T07:53:31.768Z,12.65
2023-02-16T07:55:58.612Z,14.88
2023-02-16T07:58:28.453Z,13.20
2023-02-16T08:01:08.382Z,18.45
2023-02-16T08:03:35.182Z,14.48
2023-02-16T08:06:03.162Z,12.45
2023-02-16T08:08:29.988Z,16.48
2023-02-16T08:10:56.723Z,15.95
2023-02-16T08:13:23.812Z,11.00
2023-02-16T08:15:50.791Z,14.93
2023-02-16T08:18:17.544Z,12.55
2023-02-16T08:21:01.517Z,15.68
2023-02-16T08:23:33.845Z,14.40
2023-02-16T08:26:41.696Z,12.38
2023-02-16T08:29:15.446Z,19.92
2023-02-16T08:31:42.494Z,12.82
2023-02-16T08:34:10.640Z,13.05
2023-02-16T08:36:39.984Z,9.85
2023-02-16T08:39:16.214Z,15.45
2023-02-16T08:41:44.548Z,14.68
2023-02-16T08:44:12.011Z,13.65
2023-02-16T08:46:40.506Z,12.02
2023-02-16T08:49:08.753Z,13.07
2023-02-16T08:51:42.688Z,13.18
2023-02-16T08:54:13.634Z,10.65
2023-02-16T08:56:41.571Z,11.57
2023-02-16T08:59:08.515Z,15.82
2023-02-16T09:01:35.898Z,13.27
2023-02-16T09:04:02.813Z,13.20
2023-02-16T09:06:29.439Z,11.15
2023-02-16T09:08:57.322Z,13.45
2023-02-16T09:11:25.500Z,11.48
2023-02-16T09:13:52.262Z,13.05
2023-02-16T09:16:22.377Z,13.60
2023-02-16T09:18:49.822Z,12.90
2023-02-16T09:21:22.712Z,11.30
2023-02-16T09:23:50.499Z,15.20
2023-02-16T09:26:19.773Z,10.52
2023-02-16T09:28:47.324Z,16.25
2023-02-16T09:31:27.160Z,12.00
2023-02-16T09:33:56.107Z,13.00
2023-02-16T09:36:23.468Z,11.27
2023-02-16T09:38:51.377Z,13.88
2023-02-16T09:41:29.161Z,13.10
2023-02-16T09:44:19.164Z,12.55
2023-02-16T09:46:46.982Z,14.93
2023-02-16T09:49:28.619Z,15.77
2023-02-16T09:52:04.583Z,12.30
2023-02-16T09:54:45.221Z,12.75
2023-02-16T09:57:19.374Z,13.27
2023-02-16T10:00:09.482Z,14.40
2023-02-16T10:02:54.108Z,13.07
2023-02-16T10:05:51.831Z,11.75
2023-02-16T10:08:50.107Z,11.05
2023-02-16T10:11:41.994Z,11.35
2023-02-16T10:14:36.949Z,12.57
2023-02-16T10:17:28.389Z,10.38
2023-02-16T10:20:06.012Z,9.23
2023-02-16T10:22:55.829Z,11.52
2023-02-16T10:25:32.983Z,9.55
2023-02-16T10:28:17.932Z,14.98
2023-02-16T10:30:58.350Z,9.77
2023-02-16T10:33:50.890Z,12.35
2023-02-16T10:36:26.776Z,12.07
2023-02-16T10:39:14.707Z,11.15
2023-02-16T10:41:47.503Z,11.40
2023-02-16T10:44:29.303Z,15.77
2023-02-16T10:47:01.919Z,11.95
2023-02-16T10:49:30.232Z,6.30
2023-02-16T10:51:57.799Z,10.75
2023-02-16T10:54:32.583Z,13.27
2023-02-16T10:57:06.063Z,11.70
2023-02-16T11:02:34.820Z,10.25
2023-02-16T11:05:01.892Z,11.38
2023-02-16T11:07:31.234Z,8.60
2023-02-16T11:10:01.335Z,10.48
2023-02-16T11:12:34.038Z,17.70
2023-02-16T11:15:23.510Z,11.93
2023-02-16T11:18:00.096Z,9.73
2023-02-16T11:20:53.241Z,9.48
2023-02-16T11:23:22.928Z,9.32
2023-02-16T11:26:03.507Z,11.27
2023-02-16T11:28:42.864Z,11.77
2023-02-16T11:31:15.773Z,10.30
2023-02-16T11:33:44.727Z,11.32
2023-02-16T11:36:40.487Z,8.55
2023-02-16T11:39:21.944Z,9.18
2023-02-16T11:41:57.489Z,7.57
2023-02-16T11:44:44.504Z,9.27
2023-02-16T11:47:28.268Z,10.88
2023-02-16T11:50:20.202Z,12.02
2023-02-16T11:52:49.701Z,11.93
2023-02-16T11:55:33.302Z,14.57
2023-02-16T12:01:08.519Z,12.48
2023-02-16T12:03:59.836Z,11.10
2023-02-16T12:06:41.954Z,14.27
2023-02-16T12:09:22.947Z,9.13
2023-02-16T12:12:27.962Z,11.23
2023-02-16T12:15:14.577Z,10.65
2023-02-16T12:17:44.691Z,11.70
2023-02-16T12:20:28.208Z,11.35
2023-02-16T12:23:41.432Z,14.57
2023-02-16T12:26:26.713Z,12.57
2023-02-16T12:29:24.153Z,14.50
2023-02-16T12:32:17.228Z,16.02
2023-02-16T12:34:50.946Z,13.90
2023-02-16T12:37:23.674Z,15.20
2023-02-16T12:39:53.203Z,18.27
2023-02-16T12:42:44.006Z,14.63
2023-02-16T12:45:16.551Z,17.55
2023-02-16T12:47:55.212Z,16.27
2023-02-16T12:50:27.172Z,13.63
2023-02-16T12:53:26.843Z,14.30
2023-02-16T12:55:56.998Z,20.70
2023-02-16T12:58:28.636Z,16.13
2023-02-16T13:01:04.421Z,19.92
2023-02-16T13:03:46.346Z,21.30
2023-02-16T13:06:33.753Z,14.77
2023-02-16T13:09:24.895Z,16.65
2023-02-16T13:11:57.607Z,20.20
2023-02-16T13:14:28.352Z,18.60
2023-02-16T13:17:00.459Z,14.57
2023-02-16T13:19:27.433Z,15.73
2023-02-16T13:21:54.055Z,18.08
2023-02-16T13:24:49.222Z,17.05
2023-02-16T13:27:48.970Z,15.95
2023-02-16T13:30:38.423Z,16.20
2023-02-16T13:33:24.476Z,19.20
2023-02-16T13:36:10.547Z,13.85
2023-02-16T13:39:08.426Z,16.05
2023-02-16T13:42:01.454Z,17.35
2023-02-16T13:44:40.164Z,17.67
2023-02-16T13:47:12.788Z,18.15
2023-02-16T13:49:44.698Z,14.90
2023-02-16T13:52:26.664Z,19.30
2023-02-16T13:54:53.674Z,15.43
2023-02-16T13:57:52.110Z,17.50
2023-02-16T14:00:36.502Z,17.40
2023-02-16T14:03:31.989Z,16.65
2023-02-16T14:06:32.160Z,12.70
2023-02-16T14:09:11.107Z,15.98
2023-02-16T14:11:53.185Z,15.75
2023-02-16T14:14:43.985Z,14.13
2023-02-16T14:17:19.634Z,15.60
2023-02-16T14:20:14.960Z,17.70
2023-02-16T14:22:57.523Z,16.38
2023-02-16T14:25:32.136Z,14.32
2023-02-16T14:28:25.931Z,16.60
2023-02-16T14:31:11.846Z,15.20
2023-02-16T14:33:52.539Z,14.80
2023-02-16T14:36:26.217Z,17.15
2023-02-16T14:38:58.224Z,17.23
2023-02-16T14:41:35.305Z,14.52
2023-02-16T14:44:04.933Z,15.35
2023-02-16T14:47:00.332Z,13.93
2023-02-16T14:49:59.303Z,15.18
2023-02-16T14:52:47.594Z,13.57
2023-02-16T14:55:52.352Z,16.13
2023-02-16T14:58:35.680Z,13.85
2023-02-16T15:01:11.789Z,15.80
2023-02-16T15:03:46.873Z,17.88
2023-02-16T15:06:34.285Z,14.00
2023-02-16T15:09:06.417Z,13.98
2023-02-16T15:11:56.382Z,13.75
2023-02-16T15:14:25.653Z,12.98
2023-02-16T15:16:53.901Z,12.35
2023-02-16T15:19:28.015Z,13.15
2023-02-16T15:22:13.246Z,12.50
2023-02-16T15:24:41.455Z,13.90
2023-02-16T15:27:21.364Z,11.48
2023-02-16T15:30:31.814Z,15.65
2023-02-16T15:33:22.829Z,13.07
2023-02-16T15:35:55.522Z,15.18
2023-02-16T15:38:25.368Z,19.08
2023-02-16T15:40:53.950Z,11.48
2023-02-16T15:43:38.447Z,13.02
2023-02-16T15:46:08.127Z,13.40
2023-02-16T15:48:38.689Z,11.85
2023-02-16T15:51:38.310Z,11.73
2023-02-16T15:54:13.648Z,10.00
2023-02-16T15:56:48.296Z,10.70
2023-02-16T15:59:20.839Z,12.98
2023-02-16T16:01:48.146Z,11.75
2023-02-16T16:04:22.530Z,11.30
2023-02-16T16:06:51.295Z,12.48
2023-02-16T16:09:21.564Z,10.57
2023-02-16T16:11:50.733Z,13.43
2023-02-16T16:14:17.935Z,14.65
2023-02-16T16:16:46.043Z,14.60
2023-02-16T16:19:34.345Z,16.40
2023-02-16T16:22:02.538Z,12.27
2023-02-16T16:24:42.578Z,14.48
2023-02-16T16:27:12.897Z,15.52
2023-02-16T16:29:47.736Z,20.13
2023-02-16T16:32:25.468Z,20.85
2023-02-16T16:34:52.435Z,15.55
2023-02-16T16:37:27.559Z,14.05
2023-02-16T16:40:05.645Z,17.75
2023-02-16T16:42:33.670Z,14.48
2023-02-16T16:45:25.580Z,12.82
2023-02-16T16:47:52.862Z,15.30
2023-02-16T16:50:36.271Z,14.95
2023-02-16T16:53:30.018Z,15.10
2023-02-16T16:55:57.894Z,16.85
2023-02-16T16:58:24.767Z,12.52
2023-02-16T17:00:51.466Z,11.40
2023-02-16T17:03:18.817Z,13.10
2023-02-16T17:05:57.175Z,16.95
2023-02-16T17:08:43.251Z,14.45
2023-02-16T17:11:24.856Z,12.10
2023-02-16T17:13:53.506Z,16.80
2023-02-16T17:16:28.412Z,14.00
2023-02-16T17:18:55.189Z,11.90
2023-02-16T17:21:21.931Z,10.68
2023-02-16T17:23:53.100Z,8.65
2023-02-16T17:26:21.729Z,11.55
2023-02-16T17:28:48.628Z,8.13
2023-02-16T17:31:15.905Z,9.52
2023-02-16T17:33:42.583Z,7.35
2023-02-16T17:36:14.136Z,8.63
2023-02-16T17:38:40.944Z,6.57
2023-02-16T17:41:07.775Z,7.68
2023-02-16T17:43:34.560Z,9.07
2023-02-16T17:46:04.638Z,5.95
2023-02-16T17:48:31.748Z,10.02
2023-02-16T17:50:58.523Z,6.75
2023-02-16T17:53:27.506Z,3.75
2023-02-16T17:55:56.698Z,7.50
2023-02-16T17:58:24.889Z,7.90
2023-02-16T18:00:52.305Z,6.47
2023-02-16T18:03:19.191Z,7.80
2023-02-16T18:05:46.103Z,4.35
2023-02-16T18:08:13.216Z,4.70
2023-02-16T18:10:48.560Z,5.68
2023-02-16T18:13:15.937Z,3.88
2023-02-16T18:15:45.671Z,4.18
2023-02-16T18:18:13.606Z,4.85
2023-02-16T18:20:41.050Z,3.47
2023-02-16T18:23:08.584Z,4.43
2023-02-16T18:25:35.695Z,5.25
2023-02-16T18:28:02.505Z,3.85
2023-02-16T18:30:29.560Z,2.53
2023-02-16T18:32:56.642Z,6.03
2023-02-16T18:35:23.589Z,2.92
2023-02-16T18:37:50.343Z,2.85
2023-02-16T18:40:22.254Z,3.92
2023-02-16T18:42:49.078Z,5.05
2023-02-16T18:45:15.959Z,3.67
2023-02-16T18:47:45.118Z,2.40
2023-02-16T18:50:12.740Z,2.60
2023-02-16T18:52:42.289Z,2.65
2023-02-16T18:55:10.785Z,6.32
2023-02-16T18:57:37.857Z,5.63
2023-02-16T19:00:06.810Z,4.07
2023-02-16T19:02:33.685Z,1.90
2023-02-16T19:05:00.612Z,3.00
2023-02-16T19:07:27.458Z,2.90
2023-02-16T19:09:54.395Z,5.30
2023-02-16T19:12:21.206Z,4.57
2023-02-16T19:14:47.945Z,3.17
2023-02-16T19:17:14.737Z,3.30
2023-02-16T19:19:41.460Z,5.70
2023-02-16T19:22:08.217Z,6.15
2023-02-16T19:24:35.144Z,4.15
2023-02-16T19:27:02.306Z,6.20
2023-02-16T19:29:29.267Z,4.40
2023-02-16T19:31:56.192Z,4.30
2023-02-16T19:34:24.139Z,3.20
2023-02-16T19:36:50.942Z,3.30
2023-02-16T19:39:18.075Z,6.05
2023-02-16T19:41:44.822Z,5.22
2023-02-16T19:44:14.074Z,4.15
2023-02-16T19:46:41.535Z,3.22
2023-02-16T19:49:08.621Z,4.30
2023-02-16T19:51:35.348Z,3.85
2023-02-16T19:54:02.892Z,6.25
2023-02-16T19:56:29.895Z,6.85
2023-02-16T19:58:58.355Z,5.30
2023-02-16T20:01:27.073Z,17.75
2023-02-16T20:03:55.583Z,3.55
2023-02-16T20:06:30.637Z,4.07
2023-02-16T20:08:58.603Z,6.57
2023-02-16T20:11:26.821Z,6.35
2023-02-16T20:13:54.939Z,4.28
2023-02-16T20:16:22.249Z,4.38
2023-02-16T20:18:49.562Z,4.78
2023-02-16T20:21:18.938Z,5.45
2023-02-16T20:23:45.899Z,7.53
2023-02-16T20:26:20.634Z,8.15
2023-02-16T20:28:49.237Z,6.28
2023-02-16T20:31:19.921Z,4.72
2023-02-16T20:33:47.054Z,3.80
2023-02-16T20:36:14.342Z,4.85
2023-02-16T20:38:41.111Z,4.85
2023-02-16T20:41:08.130Z,5.28
2023-02-16T20:43:36.053Z,7.47
2023-02-16T20:46:04.688Z,7.53
2023-02-16T20:48:32.575Z,3.92
2023-02-16T20:51:02.054Z,4.72
2023-02-16T20:53:30.359Z,6.82
2023-02-16T20:56:21.313Z,6.47
2023-02-16T20:58:49.839Z,6.47
2023-02-16T21:01:21.661Z,6.57
2023-02-16T21:03:49.525Z,4.85
2023-02-16T21:06:16.806Z,5.10
2023-02-16T21:08:43.901Z,5.82
2023-02-16T21:11:11.019Z,8.48
2023-02-16T21:13:39.474Z,7.75
2023-02-16T21:16:07.568Z,9.18
2023-02-16T21:18:37.698Z,7.05
2023-02-16T21:21:05.603Z,5.72
2023-02-16T21:23:32.613Z,6.65
2023-02-16T21:26:01.304Z,6.72
2023-02-16T21:28:28.725Z,7.05
2023-02-16T21:30:55.949Z,9.95
2023-02-16T21:33:23.094Z,8.73
2023-02-16T21:35:49.849Z,8.82
2023-02-16T21:38:17.621Z,11.13
2023-02-16T21:41:03.420Z,8.15
2023-02-16T21:43:30.419Z,5.45
2023-02-16T21:46:01.451Z,8.93
2023-02-16T21:48:47.627Z,5.95
2023-02-16T21:51:16.152Z,6.13
2023-02-16T21:53:43.406Z,10.35
2023-02-16T21:56:41.521Z,7.72
2023-02-16T21:59:10.560Z,9.88
2023-02-16T22:01:48.194Z,21.45
2023-02-16T22:04:18.160Z,14.18
2023-02-16T22:06:48.205Z,12.13
2023-02-16T22:09:18.165Z,11.48
2023-02-16T22:11:45.582Z,5.95
2023-02-16T22:14:13.235Z,14.25
2023-02-16T22:16:40.363Z,8.93
2023-02-16T22:19:11.413Z,31.83
2023-02-16T22:21:39.880Z,9.27
2023-02-16T22:24:07.577Z,10.93
2023-02-16T22:26:35.574Z,8.07
2023-02-16T22:29:06.760Z,12.93
2023-02-16T22:31:34.173Z,7.82
2023-02-16T22:34:11.509Z,4.43
2023-02-16T22:36:38.346Z,9.23
2023-02-16T22:39:05.040Z,3.88
2023-02-16T22:41:32.108Z,10.10
2023-02-16T22:44:02.531Z,7.68
2023-02-16T22:46:30.227Z,7.50
2023-02-16T22:48:58.765Z,8.18
2023-02-16T22:51:28.020Z,10.52
2023-02-16T22:53:55.511Z,11.27
2023-02-16T22:56:22.250Z,9.68
2023-02-16T22:58:49.144Z,6.50
2023-02-16T23:01:18.848Z,6.45
2023-02-16T23:03:53.368Z,10.73
2023-02-16T23:06:22.418Z,8.93
2023-02-16T23:08:55.348Z,10.95
2023-02-16T23:11:22.889Z,8.95
2023-02-16T23:13:49.664Z,6.93
2023-02-16T23:16:18.902Z,4.45
2023-02-16T23:18:46.226Z,8.45
2023-02-16T23:21:27.264Z,10.15
2023-02-16T23:23:54.998Z,8.40
2023-02-16T23:26:23.327Z,8.95
2023-02-16T23:28:52.262Z,10.15
2023-02-16T23:31:19.219Z,7.32
2023-02-16T23:33:46.622Z,7.13
2023-02-16T23:36:13.357Z,5.97
2023-02-16T23:38:40.186Z,7.90
2023-02-16T23:41:13.000Z,6.95
2023-02-16T23:43:40.123Z,15.68
2023-02-16T23:46:08.038Z,6.88
2023-02-16T23:48:35.082Z,9.25
2023-02-16T23:51:01.931Z,8.40
2023-02-16T23:53:29.008Z,9.57
2023-02-16T23:56:05.469Z,5.63
2023-02-16T23:58:36.332Z,6.05
